Chelmsley Wood, United Kingdom
Current Conditions -  °F | °C
As of 4:20 PM on Thursday 18 Dec 2014 (Local Time) from EGBB Reporting Station
Overcast Overcast  
Wind Chill: 57°   Ceiling: 2100
Heat Index: 57°   Visibility: 6mi
Dew Point: 50°   Wind: 13mph
Humidity: 77%   Direction: 230°SW
Pressure: 29.71"   Gusts: NA
Location:  52.48°N, 1.74°W
Report Text: EGBB 181620Z 23011KT 190V270 9999 OVC021 14/10 Q1006
Loading
Personal Weather Stations






























Interactive Weather Map New forecast layout! Learn more

10-Day Weather Forecast

Advertisements
Track Severe Weather on mobile